createdAt,value
2022-09-03T00:00:13.680Z,16.22
2022-09-03T00:02:46.776Z,16.28
2022-09-03T00:05:25.698Z,16.22
2022-09-03T00:08:04.097Z,16.11
2022-09-03T00:10:38.767Z,16.22
2022-09-03T00:13:10.716Z,16.20
2022-09-03T00:15:41.852Z,16.10
2022-09-03T00:18:17.799Z,16.20
2022-09-03T00:20:51.561Z,16.11
2022-09-03T00:23:23.909Z,16.05
2022-09-03T00:25:55.662Z,15.78
2022-09-03T00:28:30.314Z,15.56
2022-09-03T00:31:08.751Z,15.45
2022-09-03T00:33:44.226Z,15.48
2022-09-03T00:36:18.187Z,15.37
2022-09-03T00:38:46.683Z,15.41
2022-09-03T00:41:31.620Z,15.38
2022-09-03T00:44:16.150Z,15.31
2022-09-03T00:46:54.694Z,15.29
2022-09-03T00:49:45.514Z,15.27
2022-09-03T00:52:23.379Z,15.25
2022-09-03T00:55:03.179Z,15.10
2022-09-03T00:57:48.318Z,15.10
2022-09-03T01:00:19.729Z,15.34
2022-09-03T01:02:58.778Z,15.45
2022-09-03T01:05:43.264Z,15.57
2022-09-03T01:08:32.379Z,15.63
2022-09-03T01:11:20.117Z,15.72
2022-09-03T01:13:54.804Z,15.76
2022-09-03T01:16:33.667Z,15.81
2022-09-03T01:19:15.228Z,16.00
2022-09-03T01:22:05.838Z,16.06
2022-09-03T01:25:00.360Z,16.16
2022-09-03T01:27:40.374Z,15.95
2022-09-03T01:30:18.548Z,16.13
2022-09-03T01:32:53.157Z,16.21
2022-09-03T01:35:31.718Z,16.22
2022-09-03T01:38:19.110Z,16.32
2022-09-03T01:41:19.271Z,16.27
2022-09-03T01:43:57.517Z,16.21
2022-09-03T01:46:31.085Z,16.18
2022-09-03T01:49:07.338Z,16.05
2022-09-03T01:51:36.152Z,16.22
2022-09-03T01:54:45.278Z,16.34
2022-09-03T01:57:37.263Z,16.53
2022-09-03T02:00:09.718Z,16.47
2022-09-03T02:02:43.699Z,16.51
2022-09-03T02:05:15.896Z,16.63
2022-09-03T02:07:46.788Z,16.72
2022-09-03T02:10:17.791Z,16.59
2022-09-03T02:12:51.248Z,16.56
2022-09-03T02:15:23.822Z,16.65
2022-09-03T02:17:56.679Z,16.59
2022-09-03T02:20:28.958Z,16.63
2022-09-03T02:22:59.600Z,16.73
2022-09-03T02:25:36.082Z,16.87
2022-09-03T02:28:07.954Z,16.85
2022-09-03T02:30:46.316Z,16.74
2022-09-03T02:33:16.934Z,16.54
2022-09-03T02:35:46.540Z,16.46
2022-09-03T02:38:19.029Z,16.63
2022-09-03T02:40:47.859Z,16.62
2022-09-03T02:43:25.767Z,16.65
2022-09-03T02:45:58.561Z,16.56
2022-09-03T02:48:28.907Z,16.32
2022-09-03T02:50:57.455Z,16.33
2022-09-03T02:53:28.446Z,16.18
2022-09-03T02:56:00.917Z,16.13
2022-09-03T02:58:31.719Z,16.13
2022-09-03T03:01:00.557Z,16.19
2022-09-03T03:03:31.101Z,16.30
2022-09-03T03:06:02.621Z,16.46
2022-09-03T03:08:33.078Z,16.48
2022-09-03T03:11:02.216Z,16.44
2022-09-03T03:13:32.537Z,16.13
2022-09-03T03:16:02.599Z,16.10
2022-09-03T03:18:32.555Z,15.98
2022-09-03T03:21:06.431Z,15.87
2022-09-03T03:23:35.057Z,15.81
2022-09-03T03:26:05.219Z,15.83
2022-09-03T03:28:34.366Z,15.82
2022-09-03T03:31:07.848Z,15.99
2022-09-03T03:33:38.011Z,15.88
2022-09-03T03:36:08.323Z,16.01
2022-09-03T03:38:37.584Z,16.16
2022-09-03T03:41:09.678Z,16.24
2022-09-03T03:43:38.224Z,16.27
2022-09-03T03:46:06.972Z,16.48
2022-09-03T03:48:35.772Z,16.53
2022-09-03T03:51:07.650Z,16.68
2022-09-03T03:53:37.382Z,16.72
2022-09-03T03:56:08.033Z,16.64
2022-09-03T03:58:37.567Z,16.76
2022-09-03T04:04:08.558Z,16.53
2022-09-03T04:06:38.420Z,16.48
2022-09-03T04:09:06.878Z,16.32
2022-09-03T04:11:36.008Z,16.37
2022-09-03T04:14:04.695Z,16.37
2022-09-03T04:16:34.117Z,16.23
2022-09-03T04:19:02.987Z,16.27
2022-09-03T04:21:32.423Z,16.38
2022-09-03T04:24:02.367Z,16.28
2022-09-03T04:26:32.811Z,16.18
2022-09-03T04:29:04.132Z,16.45
2022-09-03T04:31:34.165Z,16.45
2022-09-03T04:34:02.762Z,16.29
2022-09-03T04:36:32.677Z,16.32
2022-09-03T04:39:03.256Z,16.35
2022-09-03T04:41:33.377Z,16.32
2022-09-03T04:44:01.882Z,16.11
2022-09-03T04:46:33.851Z,16.16
2022-09-03T04:49:03.363Z,16.19
2022-09-03T04:51:32.776Z,16.36
2022-09-03T04:54:03.417Z,16.27
2022-09-03T04:56:33.778Z,16.07
2022-09-03T04:59:04.462Z,16.24
2022-09-03T05:01:36.578Z,16.42
2022-09-03T05:04:06.369Z,16.50
2022-09-03T05:06:35.756Z,16.55
2022-09-03T05:09:06.541Z,16.65
2022-09-03T05:11:34.985Z,16.72
2022-09-03T05:14:05.942Z,16.78
2022-09-03T05:16:34.554Z,16.77
2022-09-03T05:19:08.147Z,16.64
2022-09-03T05:21:37.313Z,16.66
2022-09-03T05:24:07.452Z,16.56
2022-09-03T05:26:42.087Z,16.49
2022-09-03T05:29:10.749Z,16.53
2022-09-03T05:31:40.878Z,16.42
2022-09-03T05:34:10.634Z,16.47
2022-09-03T05:36:47.197Z,16.45
2022-09-03T05:39:17.205Z,16.42
2022-09-03T05:41:45.926Z,16.22
2022-09-03T05:44:14.729Z,16.23
2022-09-03T05:46:43.354Z,16.06
2022-09-03T05:49:12.254Z,16.06
2022-09-03T05:51:40.853Z,16.11
2022-09-03T05:54:10.355Z,16.09
2022-09-03T05:56:42.667Z,16.05
2022-09-03T05:59:12.146Z,15.91
2022-09-03T06:01:50.231Z,15.90
2022-09-03T06:04:21.175Z,15.86
2022-09-03T06:06:50.202Z,15.79
2022-09-03T06:09:20.629Z,15.83
2022-09-03T06:11:52.448Z,16.00
2022-09-03T06:14:22.224Z,15.95
2022-09-03T06:16:53.163Z,15.96
2022-09-03T06:19:22.239Z,16.00
2022-09-03T06:21:50.734Z,16.00
2022-09-03T06:24:26.518Z,16.01
2022-09-03T06:26:58.838Z,15.97
2022-09-03T06:29:27.815Z,16.16
2022-09-03T06:31:56.903Z,16.19
2022-09-03T06:34:27.302Z,16.11
2022-09-03T06:36:56.251Z,16.20
2022-09-03T06:39:25.738Z,16.33
2022-09-03T06:41:55.210Z,16.43
2022-09-03T06:44:34.450Z,16.59
2022-09-03T06:47:02.952Z,16.75
2022-09-03T06:49:31.595Z,16.80
2022-09-03T06:52:00.202Z,16.92
2022-09-03T06:54:28.658Z,17.05
2022-09-03T06:56:58.742Z,17.12
2022-09-03T06:59:28.534Z,17.31
2022-09-03T07:02:00.857Z,17.49
2022-09-03T07:04:29.512Z,17.48
2022-09-03T07:06:57.985Z,17.70
2022-09-03T07:09:27.105Z,17.80
2022-09-03T07:11:56.049Z,17.90
2022-09-03T07:14:24.724Z,17.92
2022-09-03T07:16:53.168Z,17.96
2022-09-03T07:19:23.073Z,18.01
2022-09-03T07:21:51.563Z,18.03
2022-09-03T07:24:22.507Z,18.18
2022-09-03T07:26:51.442Z,18.03
2022-09-03T07:29:21.840Z,18.13
2022-09-03T07:31:53.224Z,18.31
2022-09-03T07:34:26.809Z,18.15
2022-09-03T07:36:56.000Z,18.30
2022-09-03T07:39:24.553Z,18.05
2022-09-03T07:41:53.217Z,18.23
2022-09-03T07:44:22.970Z,18.25
2022-09-03T07:46:52.323Z,18.27
2022-09-03T07:49:22.565Z,18.38
2022-09-03T07:51:54.631Z,18.38
2022-09-03T07:54:24.337Z,18.25
2022-09-03T07:56:52.942Z,18.06
2022-09-03T07:59:23.173Z,17.94
2022-09-03T08:01:52.438Z,18.04
2022-09-03T08:04:22.236Z,18.18
2022-09-03T08:06:55.817Z,18.40
2022-09-03T08:09:24.747Z,18.57
2022-09-03T08:11:53.195Z,18.44
2022-09-03T08:14:22.210Z,18.12
2022-09-03T08:16:51.546Z,18.40
2022-09-03T08:19:20.658Z,19.02
2022-09-03T08:21:49.702Z,19.33
2022-09-03T08:24:21.375Z,19.51
2022-09-03T08:26:52.166Z,19.81
2022-09-03T08:29:21.911Z,20.00
2022-09-03T08:31:51.018Z,20.32
2022-09-03T08:34:20.665Z,20.64
2022-09-03T08:36:50.493Z,20.78
2022-09-03T08:39:21.247Z,20.84
2022-09-03T08:42:34.103Z,20.71
2022-09-03T08:45:07.351Z,19.90
2022-09-03T08:47:40.966Z,19.82
2022-09-03T08:50:19.559Z,19.27
2022-09-03T08:52:51.316Z,19.58
2022-09-03T08:55:27.164Z,20.17
2022-09-03T08:58:03.290Z,20.79
2022-09-03T09:00:43.665Z,21.02
2022-09-03T09:03:31.473Z,20.84
2022-09-03T09:06:09.487Z,20.78
2022-09-03T09:08:48.420Z,20.67
2022-09-03T09:11:27.043Z,20.81
2022-09-03T09:14:01.038Z,20.84
2022-09-03T09:16:40.949Z,20.97
2022-09-03T09:19:22.546Z,21.85
2022-09-03T09:21:54.987Z,22.83
2022-09-03T09:24:26.892Z,23.98
2022-09-03T09:27:00.995Z,24.96
2022-09-03T09:29:33.686Z,24.95
2022-09-03T09:32:04.891Z,25.25
2022-09-03T09:34:37.125Z,25.52
2022-09-03T09:37:09.601Z,26.02
2022-09-03T09:39:39.195Z,24.36
2022-09-03T09:42:12.293Z,24.60
2022-09-03T09:44:43.217Z,24.68
2022-09-03T09:47:14.770Z,26.67
2022-09-03T09:49:54.040Z,28.51
2022-09-03T09:52:26.005Z,30.60
2022-09-03T09:55:07.236Z,30.90
2022-09-03T09:57:39.087Z,31.70
2022-09-03T10:00:10.930Z,34.27
2022-09-03T10:02:49.741Z,35.58
2022-09-03T10:05:24.995Z,35.64
2022-09-03T10:07:58.447Z,34.92
2022-09-03T10:10:29.366Z,36.44
2022-09-03T10:13:04.063Z,38.11
2022-09-03T10:15:39.271Z,36.86
2022-09-03T10:18:18.029Z,38.29
2022-09-03T10:20:52.776Z,36.80
2022-09-03T10:23:25.424Z,38.71
2022-09-03T10:26:07.520Z,39.39
2022-09-03T10:28:41.681Z,41.50
2022-09-03T10:31:21.734Z,40.95
2022-09-03T10:33:57.327Z,40.57
2022-09-03T10:36:30.134Z,39.73
2022-09-03T10:39:06.467Z,41.06
2022-09-03T10:41:48.126Z,40.98
2022-09-03T10:44:40.322Z,37.84
2022-09-03T10:47:23.683Z,35.16
2022-09-03T10:49:58.202Z,34.17
2022-09-03T10:52:33.650Z,34.79
2022-09-03T10:55:15.578Z,36.51
2022-09-03T10:57:52.571Z,38.76
2022-09-03T11:00:22.940Z,40.12
2022-09-03T11:03:30.074Z,42.12
2022-09-03T11:06:06.534Z,40.09
2022-09-03T11:08:44.315Z,40.07
2022-09-03T11:11:20.219Z,41.84
2022-09-03T11:13:54.149Z,38.12
2022-09-03T11:16:27.424Z,38.41
2022-09-03T11:19:00.323Z,38.38
2022-09-03T11:21:31.558Z,38.39
2022-09-03T11:24:11.107Z,38.80
2022-09-03T11:26:41.406Z,40.41
2022-09-03T11:29:15.029Z,40.39
2022-09-03T11:31:59.647Z,40.27
2022-09-03T11:34:31.754Z,36.41
2022-09-03T11:37:20.077Z,36.18
2022-09-03T11:39:58.462Z,35.99
2022-09-03T11:42:35.237Z,37.54
2022-09-03T11:45:24.063Z,38.90
2022-09-03T11:47:54.828Z,39.61
2022-09-03T11:50:25.973Z,40.33
2022-09-03T11:52:58.647Z,40.97
2022-09-03T11:55:38.329Z,39.52
2022-09-03T11:58:24.458Z,37.57
2022-09-03T12:00:54.485Z,36.18
2022-09-03T12:03:30.390Z,35.57
2022-09-03T12:06:29.538Z,35.42
2022-09-03T12:09:13.969Z,34.47
2022-09-03T12:11:53.521Z,32.87
2022-09-03T12:14:28.357Z,33.17
2022-09-03T12:17:06.828Z,32.16
2022-09-03T12:19:42.495Z,30.47
2022-09-03T12:22:15.976Z,30.16
2022-09-03T12:24:45.250Z,29.99
2022-09-03T12:27:18.162Z,29.38
2022-09-03T12:29:59.635Z,29.07
2022-09-03T12:32:30.294Z,29.09
2022-09-03T12:35:00.448Z,29.36
2022-09-03T12:40:27.569Z,28.74
2022-09-03T12:46:10.603Z,28.14
2022-09-03T12:48:43.555Z,28.14
2022-09-03T12:54:05.827Z,28.73
2022-09-03T12:56:35.599Z,28.96
2022-09-03T12:59:07.816Z,29.15
2022-09-03T13:01:44.194Z,29.47
2022-09-03T13:04:17.225Z,29.58
2022-09-03T13:06:53.972Z,29.79
2022-09-03T13:09:25.031Z,29.85
2022-09-03T13:11:55.721Z,29.46
2022-09-03T13:14:24.354Z,29.79
2022-09-03T13:17:09.723Z,29.66
2022-09-03T13:19:51.642Z,29.81
2022-09-03T13:22:33.214Z,29.50
2022-09-03T13:25:14.901Z,29.16
2022-09-03T13:27:54.151Z,28.87
2022-09-03T13:30:24.459Z,28.36
2022-09-03T13:33:01.095Z,27.88
2022-09-03T13:35:36.283Z,28.38
2022-09-03T13:38:17.150Z,28.19
2022-09-03T13:40:52.121Z,27.87
2022-09-03T13:43:29.667Z,27.59
2022-09-03T13:46:01.385Z,27.94
2022-09-03T13:48:53.021Z,28.10
2022-09-03T13:51:27.106Z,28.48
2022-09-03T13:54:09.565Z,28.59
2022-09-03T13:56:52.389Z,28.15
2022-09-03T13:59:30.834Z,27.30
2022-09-03T14:02:12.312Z,27.48
2022-09-03T14:04:54.351Z,27.68
2022-09-03T14:07:28.184Z,27.89
2022-09-03T14:10:06.302Z,27.71
2022-09-03T14:12:47.003Z,27.47
2022-09-03T14:15:21.842Z,27.69
2022-09-03T14:17:57.482Z,27.52
2022-09-03T14:20:30.600Z,27.46
2022-09-03T14:23:05.779Z,27.27
2022-09-03T14:25:35.644Z,27.22
2022-09-03T14:28:27.533Z,27.05
2022-09-03T14:31:08.884Z,27.02
2022-09-03T14:33:44.434Z,26.87
2022-09-03T14:36:23.441Z,26.76
2022-09-03T14:39:22.073Z,26.51
2022-09-03T14:42:12.206Z,26.39
2022-09-03T14:45:16.764Z,26.32
2022-09-03T14:48:01.111Z,26.32
2022-09-03T14:50:46.400Z,26.50
2022-09-03T14:53:29.858Z,26.49
2022-09-03T14:56:31.753Z,26.25
2022-09-03T14:59:26.325Z,26.45
2022-09-03T15:02:18.356Z,26.36
2022-09-03T15:04:58.364Z,26.25
2022-09-03T15:07:35.506Z,26.09
2022-09-03T15:10:17.108Z,26.12
2022-09-03T15:12:50.711Z,26.02
2022-09-03T15:15:24.897Z,25.97
2022-09-03T15:18:16.078Z,25.87
2022-09-03T15:20:52.045Z,25.77
2022-09-03T15:23:44.428Z,25.74
2022-09-03T15:26:40.085Z,25.31
2022-09-03T15:29:22.154Z,25.42
2022-09-03T15:32:05.111Z,25.17
2022-09-03T15:34:47.622Z,24.87
2022-09-03T15:37:22.781Z,25.14
2022-09-03T15:40:02.989Z,25.22
2022-09-03T15:42:32.031Z,25.20
2022-09-03T15:45:07.796Z,25.14
2022-09-03T15:47:54.118Z,25.07
2022-09-03T15:50:35.754Z,24.95
2022-09-03T15:53:14.286Z,24.93
2022-09-03T15:55:45.202Z,24.88
2022-09-03T15:58:26.824Z,24.69
2022-09-03T16:01:01.099Z,24.76
2022-09-03T16:03:45.567Z,24.69
2022-09-03T16:06:29.171Z,24.54
2022-09-03T16:09:01.287Z,24.63
2022-09-03T16:11:38.834Z,24.58
2022-09-03T16:14:14.881Z,24.61
2022-09-03T16:16:59.127Z,24.51
2022-09-03T16:19:36.558Z,24.59
2022-09-03T16:22:09.130Z,24.59
2022-09-03T16:24:45.487Z,24.43
2022-09-03T16:27:18.902Z,24.40
2022-09-03T16:29:59.170Z,24.25
2022-09-03T16:32:40.949Z,24.29
2022-09-03T16:35:21.736Z,23.92
2022-09-03T16:38:10.910Z,24.10
2022-09-03T16:40:47.724Z,24.16
2022-09-03T16:43:40.148Z,24.01
2022-09-03T16:46:24.974Z,24.01
2022-09-03T16:49:06.228Z,23.89
2022-09-03T16:51:45.249Z,23.86
2022-09-03T16:54:44.693Z,23.66
2022-09-03T16:57:35.667Z,23.69
2022-09-03T17:00:11.708Z,23.57
2022-09-03T17:03:01.539Z,23.49
2022-09-03T17:05:47.875Z,23.31
2022-09-03T17:08:28.805Z,23.38
2022-09-03T17:11:09.474Z,23.45
2022-09-03T17:14:01.387Z,23.40
2022-09-03T17:16:47.742Z,23.41
2022-09-03T17:19:29.335Z,23.33
2022-09-03T17:22:20.918Z,23.33
2022-09-03T17:25:00.793Z,23.26
2022-09-03T17:27:47.711Z,23.30
2022-09-03T17:30:27.420Z,23.21
2022-09-03T17:33:33.333Z,23.19
2022-09-03T17:36:11.990Z,22.93
2022-09-03T17:39:07.718Z,22.88
2022-09-03T17:41:44.134Z,22.74
2022-09-03T17:44:21.041Z,22.58
2022-09-03T17:47:04.625Z,22.52
2022-09-03T17:49:42.515Z,22.60
2022-09-03T17:52:27.344Z,22.55
2022-09-03T17:55:00.770Z,22.46
2022-09-03T17:57:40.564Z,22.41
2022-09-03T18:00:12.539Z,22.38
2022-09-03T18:02:44.740Z,22.18
2022-09-03T18:05:21.152Z,22.23
2022-09-03T18:07:56.017Z,22.02
2022-09-03T18:10:33.534Z,21.94
2022-09-03T18:13:15.586Z,21.81
2022-09-03T18:15:54.368Z,21.70
2022-09-03T18:18:29.643Z,21.61
2022-09-03T18:21:29.290Z,21.58
2022-09-03T18:24:23.214Z,21.32
2022-09-03T18:27:16.459Z,21.37
2022-09-03T18:30:08.465Z,21.29
2022-09-03T18:32:54.575Z,21.17
2022-09-03T18:35:41.243Z,21.22
2022-09-03T18:38:27.377Z,21.05
2022-09-03T18:41:24.996Z,20.97
2022-09-03T18:44:23.639Z,20.84
2022-09-03T18:50:31.403Z,20.55
2022-09-03T18:53:21.174Z,20.41
2022-09-03T18:56:17.782Z,20.34
2022-09-03T18:59:17.879Z,20.23
2022-09-03T19:02:03.918Z,20.10
2022-09-03T19:05:04.001Z,19.96
2022-09-03T19:08:06.253Z,19.96
2022-09-03T19:11:02.156Z,19.85
2022-09-03T19:13:53.245Z,19.80
2022-09-03T19:16:51.386Z,19.74
2022-09-03T19:20:02.925Z,19.81
2022-09-03T19:22:53.265Z,19.81
2022-09-03T19:25:39.756Z,19.70
2022-09-03T19:28:32.380Z,19.57
2022-09-03T19:31:41.206Z,19.45
2022-09-03T19:34:38.309Z,19.44
2022-09-03T19:37:30.990Z,19.37
2022-09-03T19:40:33.293Z,19.35
2022-09-03T19:43:31.596Z,19.31
2022-09-03T19:46:28.604Z,19.22
2022-09-03T19:49:22.755Z,19.16
2022-09-03T19:52:20.487Z,19.20
2022-09-03T19:55:12.587Z,19.31
2022-09-03T19:58:00.199Z,19.25
2022-09-03T20:00:47.271Z,19.36
2022-09-03T20:03:33.913Z,19.27
2022-09-03T20:06:22.964Z,19.15
2022-09-03T20:09:10.168Z,19.03
2022-09-03T20:11:42.081Z,18.95
2022-09-03T20:14:15.683Z,18.91
2022-09-03T20:16:58.277Z,19.00
2022-09-03T20:19:36.964Z,18.99
2022-09-03T20:22:14.443Z,19.08
2022-09-03T20:24:58.975Z,19.20
2022-09-03T20:27:38.972Z,19.09
2022-09-03T20:30:10.431Z,19.06
2022-09-03T20:32:55.961Z,18.97
2022-09-03T20:35:37.089Z,19.04
2022-09-03T20:38:20.666Z,18.90
2022-09-03T20:40:57.039Z,18.94
2022-09-03T20:43:47.646Z,18.91
2022-09-03T20:46:30.476Z,18.88
2022-09-03T20:49:09.451Z,18.82
2022-09-03T20:51:43.518Z,18.75
2022-09-03T20:54:17.090Z,18.66
2022-09-03T20:57:17.826Z,18.72
2022-09-03T21:00:08.369Z,18.67
2022-09-03T21:03:16.083Z,18.56
2022-09-03T21:05:59.411Z,18.50
2022-09-03T21:08:47.114Z,18.47
2022-09-03T21:11:20.445Z,18.38
2022-09-03T21:13:58.950Z,18.38
2022-09-03T21:16:37.957Z,18.31
2022-09-03T21:19:12.923Z,18.28
2022-09-03T21:21:51.761Z,18.26
2022-09-03T21:24:23.431Z,18.24
2022-09-03T21:27:04.624Z,18.31
2022-09-03T21:29:41.716Z,18.33
2022-09-03T21:32:17.065Z,18.45
2022-09-03T21:34:54.394Z,18.48
2022-09-03T21:37:25.142Z,18.49
2022-09-03T21:39:56.463Z,18.41
2022-09-03T21:42:32.320Z,18.38
2022-09-03T21:45:06.605Z,18.41
2022-09-03T21:47:43.430Z,18.50
2022-09-03T21:50:18.304Z,18.53
2022-09-03T21:52:53.651Z,18.60
2022-09-03T21:55:28.747Z,18.67
2022-09-03T21:58:20.975Z,18.75
2022-09-03T22:00:53.112Z,18.83
2022-09-03T22:03:22.986Z,18.76
2022-09-03T22:05:58.928Z,18.55
2022-09-03T22:08:36.231Z,18.32
2022-09-03T22:11:09.868Z,18.27
2022-09-03T22:13:46.203Z,18.20
2022-09-03T22:16:23.512Z,18.31
2022-09-03T22:18:55.262Z,18.34
2022-09-03T22:21:33.151Z,18.38
2022-09-03T22:24:14.799Z,18.45
2022-09-03T22:26:52.128Z,18.51
2022-09-03T22:29:32.812Z,18.59
2022-09-03T22:32:10.055Z,18.64
2022-09-03T22:35:06.813Z,18.46
2022-09-03T22:37:49.313Z,18.65
2022-09-03T22:40:24.325Z,18.71
2022-09-03T22:43:12.433Z,18.71
2022-09-03T22:46:03.475Z,18.81
2022-09-03T22:48:58.650Z,18.59
2022-09-03T22:51:34.807Z,18.43
2022-09-03T22:54:13.210Z,18.47
2022-09-03T22:56:43.120Z,18.27
2022-09-03T22:59:18.412Z,18.22
2022-09-03T23:01:50.452Z,18.09
2022-09-03T23:04:27.105Z,17.98
2022-09-03T23:07:05.552Z,17.87
2022-09-03T23:09:39.289Z,17.87
2022-09-03T23:12:13.734Z,17.79
2022-09-03T23:14:51.413Z,17.70
2022-09-03T23:22:36.541Z,17.64
2022-09-03T23:25:09.762Z,17.74
2022-09-03T23:27:42.153Z,17.75
2022-09-03T23:30:11.709Z,17.77
2022-09-03T23:32:40.382Z,17.84
2022-09-03T23:35:18.561Z,17.91
2022-09-03T23:38:02.371Z,17.90
2022-09-03T23:40:41.960Z,18.06
2022-09-03T23:43:42.349Z,18.20
2022-09-03T23:46:19.090Z,18.21
2022-09-03T23:49:12.438Z,18.22
2022-09-03T23:51:57.605Z,18.25
2022-09-03T23:54:36.626Z,18.23
2022-09-03T23:57:12.588Z,18.32
2022-09-03T23:59:58.035Z,18.22
